Terminal Aerodrome Forecast
Issued by NWS Cleveland, OH

Home | Current Version | Previous Version | Text Only | Print | Product List | Glossary On
Versions: 1 2 3 4 5 6 7 8 9 10 11 12 13 14 15 16 17 18
000
FTUS41 KCLE 301136
TAFYNG
TAF
KYNG 301136Z 3012/0112 17005KT 2SM BR OVC005
      TEMPO 3012/3015 5SM BR OVC015
     FM301500 20008KT P6SM OVC025
     FM302000 22010KT P6SM -SHRA OVC025
      TEMPO 3020/3024 3SM TSRA OVC015CB
     FM010000 22006KT P6SM OVC250
     FM010700 22005KT 4SM BR OVC007=

USA.gov is the U.S. government's official web portal to all federal, state and local government web resources and services.